Time;durP1;ratioP1;P1;durP2;ratioP2;P2;SDS_P1;SDS_P2;PMS_P1;PMS_P2;Temp;Humidity;BMP_temperature;BMP_pressure;BME280_temperature;BME280_humidity;BME280_pressure;Samples;Min_cycle;Max_cycle;Signal;HPM_P1;HPM_P2
2021/01/22 00:01:59;;;;;;;;;;;;;;;8.12;55.29;98518.31;4888201;29;20017;-74
2021/01/22 00:04:27;;;;;;;;;;;;;;;8.13;55.10;98506.84;4899940;29;20126;-73
2021/01/22 00:06:54;;;;;;;;;;;;;;;8.12;54.91;98505.13;4906528;29;20381;-73
2021/01/22 00:09:21;;;;;;;;;;;;;;;8.10;55.13;98508.78;4901353;29;19928;-73
2021/01/22 00:11:49;;;;;;;;;;;;;;;8.09;55.12;98500.03;4898882;29;19927;-73
2021/01/22 00:14:16;;;;;;;;;;;;;;;8.09;55.26;98488.63;4908250;29;19931;-74
2021/01/22 00:16:42;;;;;;;;;;;;;;;8.08;55.49;98486.97;4907068;29;19938;-73
2021/01/22 00:19:09;;;;;;;;;;;;;;;8.07;55.22;98479.97;4903645;29;20190;-73
2021/01/22 00:21:36;;;;;;;;;;;;;;;8.06;54.92;98475.66;4903989;29;20049;-74
2021/01/22 00:24:04;;;;;;;;;;;;;;;8.02;55.69;98459.16;4903250;29;19938;-73
2021/01/22 00:26:30;;;;;;;;;;;;;;;8.04;55.74;98462.56;4906131;29;19936;-73
2021/01/22 00:28:58;;;;;;;;;;;;;;;8.04;55.77;98461.72;4909566;29;19969;-74
2021/01/22 00:31:25;;;;;;;;;;;;;;;8.05;55.30;98458.13;4910366;29;20257;-73
2021/01/22 00:33:52;;;;;;;;;;;;;;;8.07;55.44;98456.28;4898914;29;19935;-73
2021/01/22 00:36:19;;;;;;;;;;;;;;;8.08;55.58;98448.28;4885466;29;19931;-73
2021/01/22 00:38:45;;;;;;;;;;;;;;;8.18;55.68;98445.16;4905824;29;19950;-73
2021/01/22 00:41:12;;;;;;;;;;;;;;;8.35;55.66;98444.25;4904684;29;19938;-74
2021/01/22 00:43:39;;;;;;;;;;;;;;;8.45;55.38;98441.03;4907379;29;19995;-73
2021/01/22 00:46:07;;;;;;;;;;;;;;;8.51;55.42;98439.88;4905848;29;19935;-73
2021/01/22 00:48:38;;;;;;;;;;;;;;;8.68;53.62;98440.69;4896992;29;19931;-73
2021/01/22 00:51:05;;;;;;;;;;;;;;;8.83;52.04;98431.94;4887016;29;20014;-73
2021/01/22 00:53:32;;;;;;;;;;;;;;;8.86;51.05;98437.00;4906017;29;19954;-73
2021/01/22 00:55:59;;;;;;;;;;;;;;;8.93;49.96;98422.56;4888312;29;20304;-74
2021/01/22 00:58:33;;;;;;;;;;;;;;;9.00;49.07;98425.69;4905912;29;20063;-73
2021/01/22 01:01:36;;;;;;;;;;;;;;;9.11;48.37;98420.66;4906282;29;19926;-73
2021/01/22 01:04:05;;;;;;;;;;;;;;;9.14;47.54;98415.19;4894440;29;20082;-73
2021/01/22 01:06:49;;;;;;;;;;;;;;;9.22;46.72;98412.09;4906570;29;19934;-73
2021/01/22 01:09:16;;;;;;;;;;;;;;;9.24;46.97;98397.00;4905898;29;19953;-74
2021/01/22 01:11:54;;;;;;;;;;;;;;;9.33;45.71;98405.34;4887404;29;20034;-74
2021/01/22 01:14:26;;;;;;;;;;;;;;;9.27;46.35;98402.13;4898355;29;20058;-72
2021/01/22 01:16:56;;;;;;;;;;;;;;;9.07;46.73;98399.78;4894437;29;19928;-74
2021/01/22 01:19:23;;;;;;;;;;;;;;;8.94;47.31;98394.38;4902780;29;21356;-73
2021/01/22 01:21:50;;;;;;;;;;;;;;;8.86;48.26;98384.28;4911036;29;19927;-73
2021/01/22 01:24:17;;;;;;;;;;;;;;;8.81;49.15;98375.78;4906041;29;20230;-73
2021/01/22 01:26:43;;;;;;;;;;;;;;;8.78;49.29;98374.19;4908176;29;20412;-73
2021/01/22 01:29:10;;;;;;;;;;;;;;;8.75;50.39;98368.25;4904040;29;19927;-73
2021/01/22 01:31:37;;;;;;;;;;;;;;;8.73;50.62;98363.06;4900305;29;20025;-73
2021/01/22 01:34:05;;;;;;;;;;;;;;;8.73;50.58;98352.53;4903612;29;19946;-73
2021/01/22 01:36:32;;;;;;;;;;;;;;;8.73;50.75;98346.41;4911274;29;20299;-73
2021/01/22 01:38:59;;;;;;;;;;;;;;;8.72;51.53;98344.69;4913758;29;19927;-73
2021/01/22 01:41:28;;;;;;;;;;;;;;;8.70;51.89;98336.88;4905990;29;19944;-73
2021/01/22 01:43:56;;;;;;;;;;;;;;;8.70;51.96;98325.50;4909426;29;19927;-73
2021/01/22 01:46:23;;;;;;;;;;;;;;;8.69;52.01;98329.91;4896351;29;19938;-73
2021/01/22 01:48:50;;;;;;;;;;;;;;;8.69;52.65;98321.16;4902750;29;20317;-73
2021/01/22 01:51:18;;;;;;;;;;;;;;;8.67;52.67;98323.88;4905924;29;20388;-73
2021/01/22 01:53:45;;;;;;;;;;;;;;;8.66;52.90;98311.63;4904298;29;20467;-74
2021/01/22 01:56:12;;;;;;;;;;;;;;;8.66;53.03;98311.63;4911322;29;19931;-73
2021/01/22 01:58:39;;;;;;;;;;;;;;;8.66;52.87;98297.63;4907488;29;19931;-73
2021/01/22 02:01:07;;;;;;;;;;;;;;;8.64;53.43;98288.00;4900431;29;19977;-73
2021/01/22 02:03:34;;;;;;;;;;;;;;;8.63;53.56;98291.59;4900606;29;19970;-73
2021/01/22 02:06:02;;;;;;;;;;;;;;;8.63;53.82;98280.19;4905776;29;19937;-73
2021/01/22 02:08:30;;;;;;;;;;;;;;;8.63;53.69;98278.41;4906244;29;19927;-73
2021/01/22 02:10:57;;;;;;;;;;;;;;;8.62;53.91;98276.69;4903614;29;19931;-73
2021/01/22 02:13:24;;;;;;;;;;;;;;;8.62;53.80;98267.97;4909135;29;19931;-74
2021/01/22 02:15:51;;;;;;;;;;;;;;;8.63;53.91;98259.97;4899020;29;20022;-73
2021/01/22 02:18:18;;;;;;;;;;;;;;;8.62;54.46;98267.97;4906160;29;19931;-73
2021/01/22 02:20:53;;;;;;;;;;;;;;;8.61;54.36;98253.06;4904759;29;19927;-73
2021/01/22 02:23:21;;;;;;;;;;;;;;;8.60;54.72;98254.00;4908489;29;20026;-74
2021/01/22 02:25:50;;;;;;;;;;;;;;;8.59;54.92;98250.53;4901572;29;19932;-74
2021/01/22 02:28:19;;;;;;;;;;;;;;;8.59;54.85;98249.69;4905801;29;20459;-73
2021/01/22 02:30:46;;;;;;;;;;;;;;;8.59;54.42;98244.44;4903110;29;19931;-73
2021/01/22 02:33:14;;;;;;;;;;;;;;;8.57;54.73;98236.59;4892800;29;20097;-74
2021/01/22 02:35:42;;;;;;;;;;;;;;;8.56;55.00;98229.66;4908391;29;20311;-74
2021/01/22 02:38:09;;;;;;;;;;;;;;;8.56;55.12;98216.47;4905636;29;19935;-74
2021/01/22 02:40:37;;;;;;;;;;;;;;;8.55;54.60;98220.03;4906599;29;19938;-74
2021/01/22 02:43:05;;;;;;;;;;;;;;;8.55;55.44;98208.63;4903659;29;19945;-74
2021/01/22 02:45:33;;;;;;;;;;;;;;;8.53;55.55;98192.09;4907191;29;19927;-73
2021/01/22 02:48:00;;;;;;;;;;;;;;;8.53;55.41;98184.19;4912616;29;20029;-73
2021/01/22 02:50:31;;;;;;;;;;;;;;;8.50;55.48;98169.41;4908618;29;19931;-73
2021/01/22 02:52:59;;;;;;;;;;;;;;;8.49;55.69;98157.16;4908622;29;20018;-73
2021/01/22 02:55:27;;;;;;;;;;;;;;;8.49;55.77;98157.16;4910123;29;19962;-73
2021/01/22 02:57:58;;;;;;;;;;;;;;;8.48;56.16;98152.81;4904210;29;19971;-73
2021/01/22 03:00:28;;;;;;;;;;;;;;;8.67;54.28;98120.94;4896249;29;20697;-74
2021/01/22 03:03:04;;;;;;;;;;;;;;;8.83;53.09;98125.28;4909696;29;20390;-73
2021/01/22 03:05:31;;;;;;;;;;;;;;;8.96;50.87;98120.94;4903429;29;19931;-73
2021/01/22 03:08:00;;;;;;;;;;;;;;;9.01;50.67;98110.94;4905795;29;19927;-73
2021/01/22 03:10:29;;;;;;;;;;;;;;;9.09;49.29;98102.53;4905109;29;20016;-73
2021/01/22 03:12:57;;;;;;;;;;;;;;;9.13;48.68;98093.50;4903642;29;20312;-74
2021/01/22 03:15:25;;;;;;;;;;;;;;;9.20;48.03;98094.78;4910700;29;19934;-73
2021/01/22 03:18:09;;;;;;;;;;;;;;;9.25;47.49;98078.66;4911196;29;19930;-73
2021/01/22 03:20:37;;;;;;;;;;;;;;;9.33;46.98;98079.00;4911294;29;20310;-73
2021/01/22 03:23:04;;;;;;;;;;;;;;;9.28;47.75;98073.19;4906250;29;20007;-73
2021/01/22 03:25:33;;;;;;;;;;;;;;;9.11;48.15;98061.06;4901377;29;19931;-74
2021/01/22 03:28:00;;;;;;;;;;;;;;;8.99;48.46;98054.81;4899259;29;19935;-73
2021/01/22 03:30:27;;;;;;;;;;;;;;;8.94;49.51;98039.28;4908659;29;19927;-73
2021/01/22 03:32:54;;;;;;;;;;;;;;;8.91;50.23;98036.00;4910790;29;19935;-73
2021/01/22 03:35:21;;;;;;;;;;;;;;;8.88;50.93;98028.28;4915139;29;19931;-73
2021/01/22 03:37:49;;;;;;;;;;;;;;;8.87;51.15;98022.16;4909961;29;19997;-73
2021/01/22 03:40:16;;;;;;;;;;;;;;;8.87;51.92;98016.88;4904959;29;19927;-73
2021/01/22 03:42:44;;;;;;;;;;;;;;;8.89;52.40;98019.41;4900181;29;20318;-73
2021/01/22 03:45:11;;;;;;;;;;;;;;;8.87;52.35;98008.13;4909833;29;20047;-73
2021/01/22 03:47:38;;;;;;;;;;;;;;;8.87;52.33;98000.22;4907980;29;19931;-73
2021/01/22 03:50:06;;;;;;;;;;;;;;;8.86;53.13;97994.09;4905886;29;19942;-73
2021/01/22 03:52:32;;;;;;;;;;;;;;;8.86;53.38;97975.63;4910830;29;19931;-73
2021/01/22 03:55:00;;;;;;;;;;;;;;;8.85;53.29;97966.06;4900717;29;19931;-73
2021/01/22 03:57:27;;;;;;;;;;;;;;;8.85;53.94;97959.94;4902551;29;20392;-73
2021/01/22 03:59:54;;;;;;;;;;;;;;;8.84;54.09;97938.00;4905294;29;19974;-73
2021/01/22 04:02:21;;;;;;;;;;;;;;;8.84;55.38;97932.72;4903586;29;19934;-73
2021/01/22 04:04:48;;;;;;;;;;;;;;;8.84;55.25;97922.19;4905581;29;19927;-73
2021/01/22 04:07:14;;;;;;;;;;;;;;;8.84;55.84;97913.41;4909146;29;19930;-73
2021/01/22 04:09:41;;;;;;;;;;;;;;;8.84;56.50;97894.97;4906201;29;19931;-73
2021/01/22 04:12:09;;;;;;;;;;;;;;;8.83;57.04;97903.84;4901496;29;20425;-73
2021/01/22 04:14:36;;;;;;;;;;;;;;;8.82;58.09;97907.41;4905628;29;19934;-73
2021/01/22 04:17:03;;;;;;;;;;;;;;;8.80;58.28;97900.44;4908344;29;20428;-73
2021/01/22 04:19:30;;;;;;;;;;;;;;;8.80;58.76;97908.34;4909147;29;19938;-73
2021/01/22 04:21:57;;;;;;;;;;;;;;;8.81;59.62;97901.28;4907013;29;20018;-73
2021/01/22 04:24:23;;;;;;;;;;;;;;;8.80;59.61;97886.44;4905537;29;19931;-73
2021/01/22 04:26:51;;;;;;;;;;;;;;;8.85;60.58;97862.38;4904216;29;20360;-73
2021/01/22 04:29:19;;;;;;;;;;;;;;;8.97;60.24;97874.78;4909725;29;19928;-73
2021/01/22 04:31:46;;;;;;;;;;;;;;;8.99;60.83;97854.41;4911337;29;20003;-73
2021/01/22 04:34:13;;;;;;;;;;;;;;;9.00;61.32;97857.91;4905417;29;20377;-73
2021/01/22 04:36:40;;;;;;;;;;;;;;;9.10;59.92;97848.41;4911918;29;19930;-73
2021/01/22 04:39:07;;;;;;;;;;;;;;;9.24;58.17;97847.47;4904280;29;20391;-74
2021/01/22 04:41:33;;;;;;;;;;;;;;;9.32;56.34;97831.97;4905786;29;19931;-73
2021/01/22 04:44:02;;;;;;;;;;;;;;;9.39;55.74;97809.50;4894425;29;20258;-73
2021/01/22 04:46:32;;;;;;;;;;;;;;;9.45;54.45;97798.50;4910505;29;19927;-73
2021/01/22 04:48:59;;;;;;;;;;;;;;;9.51;54.49;97784.03;4906307;29;19935;-73
2021/01/22 04:51:29;;;;;;;;;;;;;;;9.54;53.93;97783.81;4897860;29;20059;-73
2021/01/22 04:53:58;;;;;;;;;;;;;;;9.57;53.30;97782.75;4901712;29;20029;-73
2021/01/22 04:56:28;;;;;;;;;;;;;;;9.62;52.57;97778.84;4906907;29;19934;-73
2021/01/22 04:58:57;;;;;;;;;;;;;;;9.63;52.29;97761.22;4904023;29;19935;-73
2021/01/22 05:01:25;;;;;;;;;;;;;;;9.66;52.51;97758.34;4909761;29;19934;-73
2021/01/22 05:03:53;;;;;;;;;;;;;;;9.68;51.64;97763.50;4905554;29;19931;-73
2021/01/22 05:06:20;;;;;;;;;;;;;;;9.71;51.58;97758.88;4892167;29;20412;-72
2021/01/22 05:08:47;;;;;;;;;;;;;;;9.70;51.46;97751.91;4901390;29;19931;-74
2021/01/22 05:11:14;;;;;;;;;;;;;;;9.73;52.19;97741.13;4904237;29;20057;-73
2021/01/22 05:13:41;;;;;;;;;;;;;;;9.81;52.46;97745.88;4906826;29;20041;-74
2021/01/22 05:16:11;;;;;;;;;;;;;;;9.84;51.63;97742.16;4909961;29;20427;-74
2021/01/22 05:18:39;;;;;;;;;;;;;;;9.90;51.86;97746.97;4904830;29;19963;-73
2021/01/22 05:21:06;;;;;;;;;;;;;;;9.89;52.27;97738.22;4903800;29;19931;-73
2021/01/22 05:23:34;;;;;;;;;;;;;;;9.89;52.13;97732.09;4896103;29;20026;-74
2021/01/22 05:26:02;;;;;;;;;;;;;;;9.86;53.03;97722.63;4910647;29;19962;-74
2021/01/22 05:28:30;;;;;;;;;;;;;;;9.66;54.03;97725.84;4906579;29;19991;-73
2021/01/22 05:30:57;;;;;;;;;;;;;;;9.50;54.94;97734.84;4907158;29;19927;-74
2021/01/22 05:33:25;;;;;;;;;;;;;;;9.37;55.18;97726.13;4903503;29;19969;-74
2021/01/22 05:35:52;;;;;;;;;;;;;;;9.29;56.22;97726.66;4905340;29;19931;-74
2021/01/22 05:38:37;;;;;;;;;;;;;;;9.23;56.33;97712.13;4904832;29;19941;-74
2021/01/22 05:41:06;;;;;;;;;;;;;;;9.20;56.90;97714.13;4907070;29;19942;-73
2021/01/22 05:43:34;;;;;;;;;;;;;;;9.17;57.01;97711.72;4906865;29;19946;-73
2021/01/22 05:46:01;;;;;;;;;;;;;;;9.16;57.61;97725.84;4907548;29;20361;-74
2021/01/22 05:48:28;;;;;;;;;;;;;;;9.12;58.29;97710.22;4908141;29;19927;-74
2021/01/22 05:50:56;;;;;;;;;;;;;;;9.10;58.28;97709.50;4904244;29;20045;-74
2021/01/22 05:53:24;;;;;;;;;;;;;;;9.09;58.38;97705.16;4910231;29;20037;-73
2021/01/22 05:56:14;;;;;;;;;;;;;;;9.08;58.67;97702.63;4906422;29;19931;-74
2021/01/22 05:58:42;;;;;;;;;;;;;;;9.06;58.97;97699.25;4896408;29;20385;-74
2021/01/22 06:01:10;;;;;;;;;;;;;;;9.05;58.78;97698.41;4894763;29;19927;-73
2021/01/22 06:03:38;;;;;;;;;;;;;;;9.05;58.93;97687.00;4900255;29;20365;-73
2021/01/22 06:06:05;;;;;;;;;;;;;;;9.03;59.38;97683.66;4901686;29;19986;-74
2021/01/22 06:08:33;;;;;;;;;;;;;;;9.02;59.18;97684.59;4904492;29;20034;-73
2021/01/22 06:11:01;;;;;;;;;;;;;;;9.03;58.85;97673.09;4911666;29;20306;-74
2021/01/22 06:13:30;;;;;;;;;;;;;;;9.02;59.25;97668.78;4906826;29;20021;-74
2021/01/22 06:19:09;;;;;;;;;;;;;;;9.10;59.37;97658.53;4905161;29;19930;-73
2021/01/22 06:25:45;;;;;;;;;;;;;;;;;;;;;
2021/01/22 06:28:41;;;;;;;;;;;;;;;9.39;57.60;97651.19;4897264;29;20419;-73
2021/01/22 06:31:08;;;;;;;;;;;;;;;9.48;56.09;97625.91;4906675;29;19931;-73
2021/01/22 06:33:36;;;;;;;;;;;;;;;9.55;54.78;97640.38;4895669;29;20002;-73
2021/01/22 06:36:05;;;;;;;;;;;;;;;9.60;53.04;97621.53;4902639;29;19935;-73
2021/01/22 06:38:41;;;;;;;;;;;;;;;9.66;52.92;97621.09;4894504;29;19931;-73
2021/01/22 06:41:08;;;;;;;;;;;;;;;9.71;51.91;97613.69;4904821;29;19935;-73
2021/01/22 06:43:36;;;;;;;;;;;;;;;9.76;51.92;97622.13;4906683;29;19939;-73
2021/01/22 06:46:10;;;;;;;;;;;;;;;9.79;50.89;97611.31;4901449;29;20303;-73
2021/01/22 06:52:22;;;;;;;;;;;;;;;9.79;50.29;97621.03;4853714;29;20320;-74
2021/01/22 06:56:00;;;;;;;;;;;;;;;9.84;49.61;97596.97;4908792;29;19927;-74
2021/01/22 07:01:56;;;;;;;;;;;;;;;9.91;48.94;97600.81;4883847;29;19935;-74
2021/01/22 07:04:47;;;;;;;;;;;;;;;9.89;48.88;97590.38;4895176;29;19973;-74
2021/01/22 07:07:52;;;;;;;;;;;;;;;9.70;49.75;97588.25;4902501;29;20483;-74
2021/01/22 07:10:53;;;;;;;;;;;;;;;9.51;51.60;97590.56;4892827;29;20388;-74
2021/01/22 07:14:12;;;;;;;;;;;;;;;;;;;;;
2021/01/22 07:32:01;;;;;;;;;;;;;;;9.19;56.22;97589.28;4711462;30;19934;-75
2021/01/22 07:35:19;;;;;;;;;;;;;;;9.17;56.43;97593.84;4782048;29;19995;-75
2021/01/22 07:37:47;;;;;;;;;;;;;;;9.17;56.64;97601.78;4794656;29;20385;-74
2021/01/22 07:40:15;;;;;;;;;;;;;;;9.16;57.42;97602.72;4879025;29;19936;-75
2021/01/22 07:42:46;;;;;;;;;;;;;;;9.14;57.00;97600.19;4892061;29;19939;-74
2021/01/22 07:45:19;;;;;;;;;;;;;;;9.14;57.93;97615.19;4873603;29;19931;-74
2021/01/22 07:48:02;;;;;;;;;;;;;;;9.13;58.14;97630.16;4890719;29;19937;-75
2021/01/22 07:50:34;;;;;;;;;;;;;;;9.11;58.23;97626.78;4882830;29;19927;-73
2021/01/22 07:53:02;;;;;;;;;;;;;;;9.11;58.79;97639.97;4895780;29;20043;-74
2021/01/22 07:55:29;;;;;;;;;;;;;;;9.12;58.55;97646.91;4896405;29;20397;-74
2021/01/22 07:58:03;;;;;;;;;;;;;;;9.35;56.75;97628.63;4895842;29;19955;-74
2021/01/22 08:00:36;;;;;;;;;;;;;;;9.52;55.58;97634.47;4892264;29;19942;-74
2021/01/22 08:03:04;;;;;;;;;;;;;;;9.63;54.56;97648.56;4892714;29;20371;-75
2021/01/22 08:05:34;;;;;;;;;;;;;;;9.68;53.79;97664.06;4912838;29;19931;-74
2021/01/22 08:08:17;;;;;;;;;;;;;;;9.71;52.99;97671.75;4915931;29;19931;-74
2021/01/22 08:10:47;;;;;;;;;;;;;;;9.55;54.77;97663.28;4892537;29;19941;-73
2021/01/22 08:13:15;;;;;;;;;;;;;;;9.54;55.86;97664.22;4907149;29;19935;-74
2021/01/22 08:15:44;;;;;;;;;;;;;;;9.49;56.31;97667.19;4904077;29;19990;-74
2021/01/22 08:18:13;;;;;;;;;;;;;;;9.60;55.19;97698.06;4918712;29;20400;-74
2021/01/22 08:20:53;;;;;;;;;;;;;;;9.70;54.02;97727.31;4903913;29;20026;-75
2021/01/22 08:23:21;;;;;;;;;;;;;;;9.78;52.79;97783.03;4895955;29;19939;-75
2021/01/22 08:25:48;;;;;;;;;;;;;;;9.87;51.91;97797.38;4901028;29;19931;-73
2021/01/22 08:28:15;;;;;;;;;;;;;;;9.90;50.83;97810.34;4870423;29;19963;-74
2021/01/22 08:30:44;;;;;;;;;;;;;;;9.95;50.30;97821.44;4889614;29;19931;-75
2021/01/22 08:33:14;;;;;;;;;;;;;;;10.01;49.70;97836.84;4881264;29;19935;-74
2021/01/22 08:35:42;;;;;;;;;;;;;;;10.03;48.93;97861.34;4875563;29;19936;-74
2021/01/22 08:38:12;;;;;;;;;;;;;;;10.07;48.71;97859.31;4878954;29;20116;-74
2021/01/22 08:40:43;;;;;;;;;;;;;;;10.07;48.82;97886.59;4874985;29;20452;-74
2021/01/22 08:43:12;;;;;;;;;;;;;;;10.08;47.92;97904.13;4875498;29;20383;-74
2021/01/22 08:45:40;;;;;;;;;;;;;;;10.13;47.46;97919.66;4880433;29;20400;-74
2021/01/22 08:48:07;;;;;;;;;;;;;;;10.17;47.45;97907.91;4892535;29;19975;-74
2021/01/22 08:50:36;;;;;;;;;;;;;;;10.05;48.15;97932.56;4888978;29;19931;-74
2021/01/22 08:53:04;;;;;;;;;;;;;;;9.88;48.90;97934.56;4897356;29;19934;-74
2021/01/22 08:55:32;;;;;;;;;;;;;;;9.80;49.67;97939.53;4902865;29;19938;-74
2021/01/22 08:57:59;;;;;;;;;;;;;;;9.77;50.18;97966.13;4785343;29;21173;-74
2021/01/22 09:00:28;;;;;;;;;;;;;;;9.73;50.23;97962.88;4479381;29;21953;-74
2021/01/22 09:02:56;;;;;;;;;;;;;;;9.69;50.72;97979.88;4635853;29;19932;-75
2021/01/22 09:05:23;;;;;;;;;;;;;;;9.70;51.25;97989.47;4886973;29;19986;-74
2021/01/22 09:08:05;;;;;;;;;;;;;;;9.63;51.67;97991.69;4891875;29;19927;-73
2021/01/22 09:10:32;;;;;;;;;;;;;;;9.63;52.11;97996.97;4883793;29;20368;-73
2021/01/22 09:13:09;;;;;;;;;;;;;;;9.58;52.16;98004.34;4880163;29;19932;-74
2021/01/22 09:15:36;;;;;;;;;;;;;;;9.55;52.71;98006.38;4889544;29;19931;-74
2021/01/22 09:18:13;;;;;;;;;;;;;;;9.58;53.14;98011.44;4894484;29;20479;-74
2021/01/22 09:20:41;;;;;;;;;;;;;;;9.85;52.20;98018.41;4887402;29;19939;-74
2021/01/22 09:23:09;;;;;;;;;;;;;;;10.01;51.60;98026.13;4894110;29;20833;-74
2021/01/22 09:25:36;;;;;;;;;;;;;;;10.09;51.52;98035.25;4894365;29;19938;-75
2021/01/22 09:28:03;;;;;;;;;;;;;;;9.92;51.88;98036.38;4886712;29;20006;-74
2021/01/22 09:30:30;;;;;;;;;;;;;;;9.94;52.04;98050.34;4890440;29;19935;-74
2021/01/22 09:32:59;;;;;;;;;;;;;;;9.91;52.80;98061.09;4891487;29;19942;-73
2021/01/22 09:35:29;;;;;;;;;;;;;;;10.08;52.07;98062.59;4886174;29;20342;-72
2021/01/22 09:37:59;;;;;;;;;;;;;;;10.30;51.37;98061.13;4874103;29;19931;-74
2021/01/22 09:40:29;;;;;;;;;;;;;;;10.29;51.85;98067.38;4888454;29;20030;-73
2021/01/22 09:42:56;;;;;;;;;;;;;;;10.17;52.08;98082.28;4890792;29;20421;-74
2021/01/22 09:45:23;;;;;;;;;;;;;;;10.08;52.78;98089.00;4877165;29;20004;-74
2021/01/22 09:47:50;;;;;;;;;;;;;;;10.05;53.23;98099.78;4878653;29;19939;-74
2021/01/22 09:50:18;;;;;;;;;;;;;;;10.00;54.68;98111.63;4891119;29;20416;-75
2021/01/22 09:52:45;;;;;;;;;;;;;;;9.91;54.81;98116.56;4889695;29;19938;-74
2021/01/22 09:55:13;;;;;;;;;;;;;;;9.91;54.67;98123.66;4888640;29;21667;-75
2021/01/22 09:57:42;;;;;;;;;;;;;;;10.05;52.58;98125.38;4891544;29;20336;-75
2021/01/22 10:00:10;;;;;;;;;;;;;;;10.10;51.38;98134.69;4894206;29;19937;-74
2021/01/22 10:02:39;;;;;;;;;;;;;;;10.21;50.09;98119.91;4893817;29;19938;-74
2021/01/22 10:05:08;;;;;;;;;;;;;;;10.28;49.13;98118.50;4898684;29;19983;-74
2021/01/22 10:07:36;;;;;;;;;;;;;;;10.34;48.63;98130.47;4894233;29;20042;-74
2021/01/22 10:10:03;;;;;;;;;;;;;;;10.29;48.03;98134.25;4894352;29;20057;-74
2021/01/22 10:12:30;;;;;;;;;;;;;;;10.32;48.26;98129.72;4898104;29;20034;-74
2021/01/22 10:14:58;;;;;;;;;;;;;;;10.18;49.04;98135.94;4904656;29;19938;-74
2021/01/22 10:17:29;;;;;;;;;;;;;;;10.04;49.67;98135.06;4900776;29;20309;-74
2021/01/22 10:19:56;;;;;;;;;;;;;;;10.04;50.07;98144.81;4877296;29;20393;-74
2021/01/22 10:22:22;;;;;;;;;;;;;;;10.06;50.32;98143.75;4881033;29;19979;-74
2021/01/22 10:24:49;;;;;;;;;;;;;;;10.17;49.70;98152.75;4873411;29;20921;-74
2021/01/22 10:27:16;;;;;;;;;;;;;;;10.28;48.17;98159.03;4876524;29;19939;-74
2021/01/22 10:29:43;;;;;;;;;;;;;;;10.33;47.19;98165.78;4879699;29;19991;-75
2021/01/22 10:32:10;;;;;;;;;;;;;;;10.50;46.47;98162.88;4879228;29;20023;-74
2021/01/22 10:34:38;;;;;;;;;;;;;;;10.58;45.94;98168.47;4873352;29;19938;-74
2021/01/22 10:37:05;;;;;;;;;;;;;;;10.59;45.09;98167.50;4871896;29;19946;-73
2021/01/22 10:39:32;;;;;;;;;;;;;;;10.76;45.08;98173.44;4870691;29;19935;-74
2021/01/22 10:41:58;;;;;;;;;;;;;;;10.69;45.76;98173.03;4879610;29;19927;-74
2021/01/22 10:44:25;;;;;;;;;;;;;;;10.56;46.68;98177.47;4893190;29;19927;-74
2021/01/22 10:46:52;;;;;;;;;;;;;;;10.51;46.77;98180.41;4898871;29;20467;-74
2021/01/22 10:49:20;;;;;;;;;;;;;;;10.36;48.07;98179.69;4891407;29;20030;-74
2021/01/22 10:51:47;;;;;;;;;;;;;;;10.30;48.79;98195.91;4886959;29;19931;-74
2021/01/22 10:54:13;;;;;;;;;;;;;;;10.25;49.03;98200.66;4895076;29;20553;-75
2021/01/22 10:56:40;;;;;;;;;;;;;;;10.25;49.24;98196.19;4883655;29;19942;-74
2021/01/22 10:59:07;;;;;;;;;;;;;;;10.26;49.88;98205.81;4889922;29;20098;-74
2021/01/22 11:01:34;;;;;;;;;;;;;;;10.36;49.65;98200.81;4895491;29;19928;-75
2021/01/22 11:04:02;;;;;;;;;;;;;;;10.37;49.80;98204.28;4908110;29;20451;-74
2021/01/22 11:06:30;;;;;;;;;;;;;;;10.48;49.88;98185.94;4910352;29;19932;-74
2021/01/22 11:08:56;;;;;;;;;;;;;;;10.50;49.81;98194.59;4913160;29;19935;-74
2021/01/22 11:11:23;;;;;;;;;;;;;;;10.54;50.15;98185.50;4898037;29;20018;-74
2021/01/22 11:13:50;;;;;;;;;;;;;;;10.60;50.18;98181.59;4911712;29;22412;-74
2021/01/22 11:16:20;;;;;;;;;;;;;;;11.44;48.13;98208.41;4912871;29;19939;-74
2021/01/22 11:18:47;;;;;;;;;;;;;;;12.08;46.11;98197.59;4907473;29;19931;-74
2021/01/22 11:21:14;;;;;;;;;;;;;;;11.95;46.90;98189.72;4900249;29;19946;-74
2021/01/22 11:23:41;;;;;;;;;;;;;;;11.62;48.16;98198.28;4909452;29;19931;-74
2021/01/22 11:26:08;;;;;;;;;;;;;;;11.44;48.69;98205.75;4907907;29;19931;-74
2021/01/22 11:28:44;;;;;;;;;;;;;;;11.49;48.61;98200.97;4908312;29;20471;-74
2021/01/22 11:31:12;;;;;;;;;;;;;;;11.63;48.71;98189.38;4912686;29;19931;-75
2021/01/22 11:33:55;;;;;;;;;;;;;;;12.07;47.82;98197.72;4906153;29;19931;-75
2021/01/22 11:36:22;;;;;;;;;;;;;;;12.42;46.62;98196.88;4898769;29;20315;-75
2021/01/22 11:39:04;;;;;;;;;;;;;;;12.16;47.88;98204.97;4899460;29;19931;-75
2021/01/22 11:41:34;;;;;;;;;;;;;;;11.95;48.24;98204.75;4895975;29;20057;-74
2021/01/22 11:44:05;;;;;;;;;;;;;;;12.31;47.90;98224.19;4891328;29;19927;-75
2021/01/22 11:46:40;;;;;;;;;;;;;;;12.09;48.41;98215.16;4914861;29;20223;-74
2021/01/22 11:49:10;;;;;;;;;;;;;;;11.69;49.44;98215.44;4894035;29;20054;-74
2021/01/22 11:51:54;;;;;;;;;;;;;;;11.52;50.23;98231.69;4886405;29;19950;-75
2021/01/22 11:54:35;;;;;;;;;;;;;;;11.38;50.71;98235.31;4897635;29;19942;-74
2021/01/22 11:57:06;;;;;;;;;;;;;;;11.17;51.46;98237.66;4886189;29;19941;-75
2021/01/22 11:59:33;;;;;;;;;;;;;;;11.07;51.71;98240.94;4890738;29;20026;-75
2021/01/22 12:02:00;;;;;;;;;;;;;;;11.04;51.79;98237.66;4892766;29;19946;-75
2021/01/22 12:04:29;;;;;;;;;;;;;;;11.01;52.20;98244.00;4892573;29;19966;-74
2021/01/22 12:06:56;;;;;;;;;;;;;;;12.03;49.60;98244.78;4906674;29;19931;-75
2021/01/22 12:09:23;;;;;;;;;;;;;;;12.88;46.85;98229.63;4910995;29;20009;-75
2021/01/22 12:11:51;;;;;;;;;;;;;;;13.22;46.21;98233.16;4916890;29;20368;-75
2021/01/22 12:14:18;;;;;;;;;;;;;;;12.48;48.00;98249.44;4895163;29;19937;-75
2021/01/22 12:16:47;;;;;;;;;;;;;;;12.05;49.40;98234.91;4904026;29;20439;-74
2021/01/22 12:19:18;;;;;;;;;;;;;;;11.77;50.26;98258.09;4894375;29;20471;-74
2021/01/22 12:21:48;;;;;;;;;;;;;;;11.89;49.98;98251.06;4895413;29;20015;-75
2021/01/22 12:24:15;;;;;;;;;;;;;;;11.95;49.69;98253.28;4896009;29;19937;-75
2021/01/22 12:26:42;;;;;;;;;;;;;;;11.79;50.22;98257.97;4906041;29;19943;-75
2021/01/22 12:29:10;;;;;;;;;;;;;;;11.45;51.41;98263.88;4878463;29;20440;-75
2021/01/22 12:31:37;;;;;;;;;;;;;;;11.30;52.02;98273.72;4888019;29;19931;-74
2021/01/22 12:34:06;;;;;;;;;;;;;;;11.17;52.32;98269.41;4893028;29;19942;-74
2021/01/22 12:36:35;;;;;;;;;;;;;;;11.08;52.52;98250.59;4889549;29;19967;-75
2021/01/22 12:39:04;;;;;;;;;;;;;;;10.93;52.83;98271.00;4891059;29;19978;-74
2021/01/22 12:44:37;;;;;;;;;;;;;;;10.92;51.35;98274.56;4871600;29;19940;-77
2021/01/22 12:47:14;;;;;;;;;;;;;;;11.04;49.46;98274.69;4893347;29;20557;-74
2021/01/22 12:49:41;;;;;;;;;;;;;;;11.08;48.68;98273.53;4906516;29;19937;-74
2021/01/22 12:52:08;;;;;;;;;;;;;;;11.11;47.79;98273.34;4904515;29;20022;-74
2021/01/22 12:54:35;;;;;;;;;;;;;;;11.13;46.99;98266.97;4892671;29;19947;-74
2021/01/22 12:57:02;;;;;;;;;;;;;;;11.13;46.74;98274.91;4893280;29;20023;-74
2021/01/22 12:59:30;;;;;;;;;;;;;;;11.16;46.05;98275.66;4878126;29;19935;-76
2021/01/22 13:01:58;;;;;;;;;;;;;;;11.20;45.67;98271.84;4878447;29;20403;-75
2021/01/22 13:04:25;;;;;;;;;;;;;;;11.33;45.06;98285.06;4879316;29;19942;-75
2021/01/22 13:06:52;;;;;;;;;;;;;;;11.39;45.17;98293.41;4901517;29;19927;-75
2021/01/22 13:09:18;;;;;;;;;;;;;;;11.19;46.40;98278.06;4889780;29;19940;-75
2021/01/22 13:11:45;;;;;;;;;;;;;;;11.10;47.13;98292.81;4899172;29;20074;-75
2021/01/22 13:14:12;;;;;;;;;;;;;;;11.93;45.44;98283.47;4908014;29;20393;-75
2021/01/22 13:16:39;;;;;;;;;;;;;;;11.73;46.27;98298.16;4902138;29;19927;-75
2021/01/22 13:19:07;;;;;;;;;;;;;;;11.35;47.58;98297.25;4910150;29;19927;-74
2021/01/22 13:21:34;;;;;;;;;;;;;;;11.24;48.27;98305.06;4908209;29;19942;-75
2021/01/22 13:24:02;;;;;;;;;;;;;;;11.19;48.42;98302.75;4903817;29;20441;-75
2021/01/22 13:26:28;;;;;;;;;;;;;;;11.09;49.11;98309.63;4892681;29;20790;-74
2021/01/22 13:28:55;;;;;;;;;;;;;;;10.98;49.52;98315.66;4885403;29;20324;-75
2021/01/22 13:31:22;;;;;;;;;;;;;;;10.98;49.73;98312.16;4891800;29;19933;-74
2021/01/22 13:33:49;;;;;;;;;;;;;;;10.95;49.75;98316.72;4893276;29;19935;-75
2021/01/22 13:36:30;;;;;;;;;;;;;;;10.90;49.99;98328.53;4886469;29;20045;-75
2021/01/22 13:38:57;;;;;;;;;;;;;;;10.85;50.65;98328.00;4895331;29;20573;-75
2021/01/22 13:41:34;;;;;;;;;;;;;;;10.71;51.13;98328.94;4896681;29;19938;-74